RJOY

Details ICAO RJOY
Name YAO
Region Japan
Timezone Asia/Tokyo (UTC+9.0)
Plans Departing 7
Arriving 5
Stats Elevation 39 ft / 12 m (AMSL)
Location 34.596714° 135.599333°
Runways 2
Magnetic Variation 7.635° W
Sunrise 2018-05-23 19:50:58 UTC / 2018-05-24 04:50:58 Local
Sunset 2018-05-24 10:00:42 UTC / 2018-05-24 19:00:42 Local
Advertisement - Login to hide

Runways

ID Width Length Bearing (true) Bearing (mag) Surface Threshold Offset Overrun Length
09 150 ft / 46 m 4,880 ft / 1,488 m 86.64° 94.27° Asphalt 0 ft / 0 m 215 ft / 66 m
13 100 ft / 30 m 3,919 ft / 1,195 m 127.42° 135.05° Asphalt 0 ft / 0 m 215 ft / 66 m
27 150 ft / 46 m 4,880 ft / 1,488 m 266.65° 274.28° Asphalt 0 ft / 0 m 215 ft / 66 m
31 100 ft / 30 m 3,919 ft / 1,195 m 307.43° 315.06° Asphalt 328 ft / 100 m 215 ft / 66 m

Map

Weather


0- 5 10 15 20 25 30 35+ Temperature / ° C

Clouds and Precipitation
Forecast for 2018-05-24 00:00 UTC. Updated 4 hours ago

Ground ~20,000 ft ~40,000 ft Winds

METAR

RJOY 240300Z 27008KT 9999 FEW035 24/10 Q1007

TAF

Not found

Frequencies

Ground 121.80 MHz GND
Tower 124.35 MHz TWR
Approach 124.70 MHz KANSAI APP
Tower 126.20 MHz TWR
Approach 120.45 MHz KANSAI APP
Warning: Do not use this data for real-world aviation or navigation. No guarantee of current accuracy is given.